Time;durP1;ratioP1;P1;durP2;ratioP2;P2;SDS_P1;SDS_P2;PMS_P1;PMS_P2;Temp;Humidity;BMP_temperature;BMP_pressure;BME280_temperature;BME280_humidity;BME280_pressure;Samples;Min_cycle;Max_cycle;Signal;HPM_P1;HPM_P2
2022/04/01 00:01:51;;;;;;;0.50;0.50;;;2.50;99.90;;;;;;4976785;28;20220;-87
2022/04/01 00:04:17;;;;;;;0.60;0.60;;;2.50;99.90;;;;;;4985899;28;20189;-87
2022/04/01 00:06:42;;;;;;;0.50;0.50;;;2.40;99.90;;;;;;4979959;28;20694;-86
2022/04/01 00:09:10;;;;;;;0.53;0.53;;;2.40;99.90;;;;;;4984650;28;20448;-87
2022/04/01 00:11:36;;;;;;;0.43;0.43;;;2.40;99.90;;;;;;4999736;28;20310;-88
2022/04/01 00:14:01;;;;;;;0.50;0.50;;;2.40;99.90;;;;;;4991602;28;20574;-88
2022/04/01 00:16:27;;;;;;;0.60;0.60;;;2.40;99.90;;;;;;4985347;28;20217;-87
2022/04/01 00:18:52;;;;;;;0.50;0.50;;;2.50;99.90;;;;;;4988965;28;20315;-88
2022/04/01 00:21:18;;;;;;;0.50;0.50;;;2.50;99.90;;;;;;4982164;28;20657;-87
2022/04/01 00:23:43;;;;;;;0.40;0.40;;;2.50;99.90;;;;;;4978395;28;20201;-87
2022/04/01 00:26:09;;;;;;;0.60;0.60;;;2.50;99.90;;;;;;4972778;28;20654;-87
2022/04/01 00:28:35;;;;;;;0.60;0.60;;;2.50;99.90;;;;;;4978954;28;20193;-88
2022/04/01 00:31:00;;;;;;;0.60;0.60;;;2.50;99.90;;;;;;4992551;28;20212;-86
2022/04/01 00:33:27;;;;;;;0.50;0.50;;;2.50;99.90;;;;;;4986249;28;20192;-87
2022/04/01 00:35:52;;;;;;;0.53;0.53;;;2.40;99.90;;;;;;4978310;28;20668;-87
2022/04/01 00:38:18;;;;;;;0.50;0.50;;;2.40;99.90;;;;;;4989057;28;20456;-87
2022/04/01 00:40:44;;;;;;;0.53;0.53;;;2.40;99.90;;;;;;4986724;28;20239;-87
2022/04/01 00:43:10;;;;;;;0.50;0.50;;;2.50;99.90;;;;;;4986051;28;20448;-87
2022/04/01 00:45:36;;;;;;;0.60;0.60;;;2.50;99.90;;;;;;4988364;28;20311;-88
2022/04/01 00:48:12;;;;;;;0.50;0.50;;;2.50;99.90;;;;;;4995298;28;20824;-87
2022/04/01 00:50:38;;;;;;;0.43;0.43;;;2.50;99.90;;;;;;4981959;28;20443;-88
2022/04/01 00:53:04;;;;;;;0.57;0.57;;;2.50;99.90;;;;;;4989612;28;20535;-87
2022/04/01 00:55:29;;;;;;;1.00;0.90;;;2.50;99.90;;;;;;4990789;28;20272;-87
2022/04/01 00:57:56;;;;;;;1.03;0.93;;;2.50;99.90;;;;;;4979557;28;20554;-87
2022/04/01 01:00:22;;;;;;;1.10;1.00;;;2.50;99.90;;;;;;4993404;28;20191;-87
2022/04/01 01:02:47;;;;;;;1.00;0.90;;;2.50;99.90;;;;;;5000491;28;20459;-87
2022/04/01 01:05:13;;;;;;;1.70;1.60;;;2.40;99.90;;;;;;4987576;28;20451;-87
2022/04/01 01:07:42;;;;;;;1.00;0.90;;;2.50;99.90;;;;;;4995172;28;20252;-88
2022/04/01 01:10:10;;;;;;;0.97;0.87;;;2.50;99.90;;;;;;4988583;28;20460;-87
2022/04/01 01:12:37;;;;;;;1.00;0.90;;;2.50;99.90;;;;;;4987431;28;20987;-87
2022/04/01 01:15:13;;;;;;;1.10;1.00;;;2.50;99.90;;;;;;4996084;28;20781;-86
2022/04/01 01:17:39;;;;;;;1.00;0.90;;;2.40;99.90;;;;;;4999282;28;20529;-87
2022/04/01 01:20:12;;;;;;;1.10;1.00;;;2.40;99.90;;;;;;4984980;28;20486;-87
2022/04/01 01:22:39;;;;;;;0.87;0.80;;;2.50;99.90;;;;;;5001656;28;20452;-87
2022/04/01 01:25:08;;;;;;;1.00;0.90;;;2.50;99.90;;;;;;4995097;28;20833;-87
2022/04/01 01:27:33;;;;;;;1.00;0.90;;;2.40;99.90;;;;;;4982369;28;20455;-87
2022/04/01 01:30:00;;;;;;;0.87;0.80;;;2.40;99.90;;;;;;4985830;28;20448;-88
2022/04/01 01:32:28;;;;;;;1.10;1.00;;;2.40;99.90;;;;;;4990505;28;20235;-87
2022/04/01 01:34:54;;;;;;;1.00;0.90;;;2.40;99.90;;;;;;4978699;28;20440;-88
2022/04/01 01:37:20;;;;;;;0.83;0.83;;;2.40;99.90;;;;;;4989295;28;20489;-87
2022/04/01 01:39:45;;;;;;;0.50;0.50;;;2.40;99.90;;;;;;4987115;28;20987;-87
2022/04/01 01:42:11;;;;;;;0.60;0.60;;;2.40;99.90;;;;;;4986998;28;20649;-88
2022/04/01 01:44:36;;;;;;;0.40;0.40;;;2.40;99.90;;;;;;4990096;28;20184;-88
2022/04/01 01:47:03;;;;;;;0.50;0.50;;;2.30;99.90;;;;;;4993762;28;20185;-88
2022/04/01 01:49:28;;;;;;;0.50;0.50;;;2.40;99.90;;;;;;4984845;28;20194;-87
2022/04/01 01:54:49;;;;;;;0.60;0.60;;;2.40;99.90;;;;;;5007020;28;20788;-87
2022/04/01 01:57:22;;;;;;;0.40;0.40;;;2.40;99.90;;;;;;4991730;28;20470;-87
2022/04/01 01:59:49;;;;;;;0.50;0.50;;;2.40;99.90;;;;;;4997740;28;20456;-87
2022/04/01 02:02:14;;;;;;;0.50;0.50;;;2.40;99.90;;;;;;5001864;28;20458;-87
2022/04/01 02:04:41;;;;;;;0.50;0.50;;;2.40;99.90;;;;;;4982971;28;20890;-87
2022/04/01 02:07:08;;;;;;;0.50;0.50;;;2.40;99.90;;;;;;4984253;28;20642;-87
2022/04/01 02:09:34;;;;;;;0.50;0.50;;;2.40;99.90;;;;;;5010107;28;20824;-87
2022/04/01 02:12:01;;;;;;;0.60;0.60;;;2.40;99.90;;;;;;4985221;28;20486;-87
2022/04/01 02:14:26;;;;;;;0.50;0.50;;;2.40;99.90;;;;;;4986203;28;20260;-88
2022/04/01 02:16:52;;;;;;;0.50;0.50;;;2.40;99.90;;;;;;4994353;28;20537;-88
2022/04/01 02:19:21;;;;;;;0.60;0.60;;;2.40;99.90;;;;;;4993094;28;20269;-87
2022/04/01 02:21:59;;;;;;;0.60;0.60;;;2.40;99.90;;;;;;4976811;28;20457;-87
2022/04/01 02:24:25;;;;;;;0.70;0.70;;;2.40;99.90;;;;;;4977782;28;20531;-87
2022/04/01 02:26:51;;;;;;;0.60;0.60;;;2.40;99.90;;;;;;4979551;28;20800;-87
2022/04/01 02:29:19;;;;;;;0.60;0.60;;;2.40;99.90;;;;;;4990777;28;20431;-87
2022/04/01 02:31:45;;;;;;;0.40;0.40;;;2.40;99.90;;;;;;4984798;28;20494;-86
2022/04/01 02:34:11;;;;;;;0.57;0.57;;;2.30;99.90;;;;;;4985816;28;20443;-86
2022/04/01 02:36:38;;;;;;;0.60;0.60;;;2.40;99.90;;;;;;4986134;28;20448;-87
2022/04/01 02:39:05;;;;;;;0.60;0.60;;;2.40;99.90;;;;;;5009880;28;20190;-87
2022/04/01 02:41:31;;;;;;;0.60;0.60;;;2.40;99.90;;;;;;4987438;28;20538;-88
2022/04/01 02:44:08;;;;;;;0.60;0.60;;;2.40;99.90;;;;;;4994785;28;20823;-87
2022/04/01 02:46:37;;;;;;;0.60;0.60;;;2.40;99.90;;;;;;4988280;28;20940;-85
2022/04/01 02:49:06;;;;;;;0.50;0.50;;;2.30;99.90;;;;;;4990855;28;20440;-86
2022/04/01 02:51:39;;;;;;;0.40;0.40;;;2.40;99.90;;;;;;4988604;28;20490;-86
2022/04/01 02:54:06;;;;;;;0.70;0.70;;;2.40;99.90;;;;;;4994490;28;20939;-86
2022/04/01 02:56:32;;;;;;;0.50;0.50;;;2.40;99.90;;;;;;4984827;28;20978;-87
2022/04/01 02:59:03;;;;;;;0.60;0.60;;;2.40;99.90;;;;;;4993094;28;20470;-87
2022/04/01 03:01:29;;;;;;;0.50;0.50;;;2.40;99.90;;;;;;4989733;28;20452;-87
2022/04/01 03:03:55;;;;;;;0.70;0.70;;;2.40;99.90;;;;;;4989128;28;20452;-87
2022/04/01 03:06:21;;;;;;;0.50;0.50;;;2.40;99.90;;;;;;4999610;28;20988;-87
2022/04/01 03:08:50;;;;;;;0.43;0.43;;;2.40;99.90;;;;;;4983584;28;20456;-87
2022/04/01 03:11:17;;;;;;;0.50;0.50;;;2.40;99.90;;;;;;4985636;28;20900;-87
2022/04/01 03:13:43;;;;;;;0.60;0.60;;;2.30;99.90;;;;;;4990036;28;20455;-88
2022/04/01 03:16:09;;;;;;;0.53;0.53;;;2.40;99.90;;;;;;4987725;28;20511;-88
2022/04/01 03:18:40;;;;;;;0.50;0.50;;;2.40;99.90;;;;;;4986364;28;20460;-87
2022/04/01 03:21:10;;;;;;;0.60;0.60;;;2.40;99.90;;;;;;4984862;28;20283;-88
2022/04/01 03:23:39;;;;;;;0.50;0.50;;;2.40;99.90;;;;;;4984525;28;20460;-87
2022/04/01 03:26:06;;;;;;;0.60;0.60;;;2.40;99.90;;;;;;4987381;28;20476;-86
2022/04/01 03:28:33;;;;;;;1.00;0.90;;;2.40;99.90;;;;;;4991778;28;20454;-87
2022/04/01 03:30:58;;;;;;;0.60;0.60;;;2.40;99.90;;;;;;4988092;28;20482;-87
2022/04/01 03:33:24;;;;;;;0.60;0.60;;;2.30;99.90;;;;;;4993498;28;20494;-86
2022/04/01 03:35:50;;;;;;;0.60;0.60;;;2.30;99.90;;;;;;4986399;28;20181;-87
2022/04/01 03:38:16;;;;;;;0.50;0.50;;;2.40;99.90;;;;;;4987253;28;20939;-87
2022/04/01 03:40:47;;;;;;;0.60;0.60;;;2.40;99.90;;;;;;4991020;28;20197;-88
2022/04/01 03:43:12;;;;;;;0.50;0.50;;;2.40;99.90;;;;;;4994687;28;20192;-87
2022/04/01 03:45:38;;;;;;;0.50;0.50;;;2.30;99.90;;;;;;4992992;28;20994;-87
2022/04/01 03:48:12;;;;;;;0.50;0.50;;;2.30;99.90;;;;;;4996683;28;20264;-87
2022/04/01 03:50:39;;;;;;;0.60;0.60;;;2.40;99.90;;;;;;4987010;28;20452;-87
2022/04/01 03:53:09;;;;;;;0.60;0.60;;;2.40;99.90;;;;;;4983064;28;20494;-86
2022/04/01 03:55:38;;;;;;;0.50;0.50;;;2.40;99.90;;;;;;4994863;28;20466;-87
2022/04/01 03:58:09;;;;;;;0.60;0.60;;;2.30;99.90;;;;;;5002347;28;21050;-87
2022/04/01 04:00:35;;;;;;;0.70;0.70;;;2.40;99.90;;;;;;4982520;28;20439;-86
2022/04/01 04:03:07;;;;;;;0.50;0.50;;;2.40;99.90;;;;;;4995515;28;20973;-87
2022/04/01 04:05:37;;;;;;;0.60;0.60;;;2.40;99.90;;;;;;4988143;28;20452;-87
2022/04/01 04:08:04;;;;;;;0.50;0.50;;;2.30;99.90;;;;;;4978958;28;20515;-87
2022/04/01 04:10:32;;;;;;;0.60;0.60;;;2.40;99.90;;;;;;4991260;28;20452;-86
2022/04/01 04:12:58;;;;;;;0.40;0.40;;;2.30;99.90;;;;;;5005794;28;20474;-87
2022/04/01 04:15:29;;;;;;;0.60;0.60;;;2.30;99.90;;;;;;5010584;28;20447;-88
2022/04/01 04:17:59;;;;;;;0.50;0.50;;;2.30;99.90;;;;;;4993266;28;20452;-86
2022/04/01 04:20:33;;;;;;;0.60;0.60;;;2.30;99.90;;;;;;4992814;28;22331;-86
2022/04/01 04:23:22;;;;;;;0.50;0.50;;;2.30;99.90;;;;;;4997017;28;20464;-87
2022/04/01 04:26:15;;;;;;;0.40;0.40;;;2.30;99.90;;;;;;5001515;28;20524;-88
2022/04/01 04:28:49;;;;;;;0.60;0.60;;;2.30;99.90;;;;;;4992039;28;20452;-87
2022/04/01 04:31:19;;;;;;;1.47;1.37;;;2.30;99.90;;;;;;5002978;28;20482;-87
2022/04/01 04:33:46;;;;;;;0.60;0.60;;;2.20;99.90;;;;;;4999469;28;20496;-87
2022/04/01 04:36:16;;;;;;;0.60;0.60;;;2.30;99.90;;;;;;4989989;28;20566;-86
2022/04/01 04:38:44;;;;;;;0.60;0.60;;;2.20;99.90;;;;;;4992504;28;20484;-86
2022/04/01 04:41:10;;;;;;;0.50;0.50;;;2.30;99.90;;;;;;4991135;28;20447;-86
2022/04/01 04:43:38;;;;;;;0.60;0.60;;;2.30;99.90;;;;;;4991942;28;20436;-88
2022/04/01 04:46:05;;;;;;;0.53;0.53;;;2.30;99.90;;;;;;5001701;28;20188;-88
2022/04/01 04:48:33;;;;;;;0.30;0.30;;;2.30;99.90;;;;;;5001293;28;20447;-87
2022/04/01 04:51:02;;;;;;;0.50;0.50;;;2.30;99.90;;;;;;4994483;28;20447;-87
2022/04/01 04:53:30;;;;;;;0.40;0.40;;;2.30;99.90;;;;;;4989076;28;20450;-89
2022/04/01 04:55:59;;;;;;;0.50;0.50;;;2.20;99.90;;;;;;4988022;28;20448;-87
2022/04/01 04:58:39;;;;;;;0.60;0.60;;;2.20;99.90;;;;;;4990017;28;21207;-88
2022/04/01 05:01:24;;;;;;;0.60;0.60;;;2.30;99.90;;;;;;4983365;28;20459;-88
2022/04/01 05:04:11;;;;;;;0.60;0.60;;;2.30;99.90;;;;;;4982505;28;20958;-86
2022/04/01 05:06:50;;;;;;;0.40;0.40;;;2.20;99.90;;;;;;4987318;28;20530;-88
2022/04/01 05:09:31;;;;;;;0.60;0.60;;;2.20;99.90;;;;;;4983442;28;22378;-87
2022/04/01 05:12:12;;;;;;;0.60;0.60;;;2.20;99.90;;;;;;4994999;28;20573;-89
2022/04/01 05:14:58;;;;;;;0.50;0.50;;;2.30;99.90;;;;;;4985691;28;20524;-89
2022/04/01 05:17:35;;;;;;;0.50;0.50;;;2.30;99.90;;;;;;4987122;28;20485;-89
2022/04/01 05:20:02;;;;;;;0.43;0.43;;;2.30;99.90;;;;;;4985139;28;20526;-87
2022/04/01 05:22:48;;;;;;;0.40;0.40;;;2.30;99.90;;;;;;5019467;28;20447;-88
2022/04/01 05:25:19;;;;;;;0.50;0.50;;;2.30;99.90;;;;;;5024125;28;20438;-87
2022/04/01 05:27:50;;;;;;;0.50;0.50;;;2.30;99.90;;;;;;4999868;28;20452;-88
2022/04/01 05:30:17;;;;;;;0.60;0.60;;;2.30;99.90;;;;;;4991850;28;21006;-88
2022/04/01 05:32:57;;;;;;;0.50;0.50;;;2.30;99.90;;;;;;4993026;28;20476;-88
2022/04/01 05:35:25;;;;;;;0.50;0.50;;;2.30;99.90;;;;;;4990290;28;21008;-87
2022/04/01 05:37:52;;;;;;;0.50;0.50;;;2.30;99.90;;;;;;4987920;28;20448;-88
2022/04/01 05:40:21;;;;;;;0.50;0.50;;;2.30;99.90;;;;;;4987423;28;20511;-87
2022/04/01 05:42:48;;;;;;;0.50;0.50;;;2.40;99.90;;;;;;4980278;28;20439;-87
2022/04/01 05:45:16;;;;;;;0.50;0.50;;;2.40;99.90;;;;;;4991513;28;21027;-87
2022/04/01 05:47:42;;;;;;;0.47;0.47;;;2.40;99.90;;;;;;4990642;28;20531;-87
2022/04/01 05:50:08;;;;;;;0.50;0.50;;;2.40;99.90;;;;;;4983693;28;20882;-87
2022/04/01 05:52:36;;;;;;;0.50;0.50;;;2.40;99.90;;;;;;4994877;28;20227;-87
2022/04/01 05:55:03;;;;;;;0.50;0.50;;;2.40;99.90;;;;;;5003019;28;20499;-86
2022/04/01 05:57:29;;;;;;;0.60;0.60;;;2.50;99.90;;;;;;4988851;28;20444;-87
2022/04/01 05:59:54;;;;;;;0.50;0.50;;;2.50;99.90;;;;;;4997231;28;20952;-86
2022/04/01 06:02:38;;;;;;;0.60;0.60;;;2.50;99.90;;;;;;4991996;28;20228;-87
2022/04/01 06:05:26;;;;;;;0.50;0.50;;;2.60;99.90;;;;;;4990677;28;20197;-86
2022/04/01 06:08:19;;;;;;;0.50;0.50;;;2.50;99.90;;;;;;4990886;28;20444;-88
2022/04/01 06:11:09;;;;;;;0.50;0.50;;;2.60;99.90;;;;;;4980801;28;20489;-87
2022/04/01 06:14:07;;;;;;;0.50;0.50;;;2.70;99.90;;;;;;5003733;28;20463;-87
2022/04/01 06:16:53;;;;;;;0.50;0.50;;;2.70;99.90;;;;;;4981313;28;20458;-86
2022/04/01 06:19:23;;;;;;;0.50;0.50;;;2.70;99.90;;;;;;4980209;28;20517;-88
2022/04/01 06:22:05;;;;;;;0.40;0.40;;;2.70;99.90;;;;;;4987389;28;20443;-86
2022/04/01 06:24:49;;;;;;;0.60;0.60;;;2.70;99.90;;;;;;4992277;28;20566;-88
2022/04/01 06:27:22;;;;;;;0.47;0.47;;;2.80;99.90;;;;;;4980065;28;20959;-87
2022/04/01 06:29:58;;;;;;;0.50;0.50;;;2.90;99.90;;;;;;4987875;28;20442;-87
2022/04/01 06:32:48;;;;;;;0.50;0.50;;;2.90;99.90;;;;;;4983790;28;20486;-87
2022/04/01 06:35:35;;;;;;;0.50;0.50;;;3.00;99.90;;;;;;5001302;28;20966;-87
2022/04/01 06:38:06;;;;;;;0.30;0.30;;;2.90;99.90;;;;;;5010468;28;20452;-88
2022/04/01 06:41:01;;;;;;;0.50;0.50;;;3.00;99.90;;;;;;5000931;28;20438;-87
2022/04/01 06:43:27;;;;;;;0.50;0.50;;;3.10;99.90;;;;;;4997019;28;20467;-87
2022/04/01 06:45:53;;;;;;;0.43;0.43;;;3.10;99.90;;;;;;4983400;28;20878;-88
2022/04/01 06:48:19;;;;;;;0.50;0.50;;;3.10;99.90;;;;;;4998801;28;20447;-88
2022/04/01 06:50:49;;;;;;;0.50;0.50;;;3.10;99.90;;;;;;4995087;28;20447;-88
2022/04/01 06:53:19;;;;;;;0.53;0.53;;;3.20;99.90;;;;;;4997812;28;20484;-87
2022/04/01 06:55:47;;;;;;;0.40;0.40;;;3.20;99.90;;;;;;4984917;28;20445;-88
2022/04/01 06:58:13;;;;;;;0.50;0.50;;;3.30;99.90;;;;;;4999648;28;20451;-87
2022/04/01 07:00:42;;;;;;;0.43;0.43;;;3.30;99.90;;;;;;4995358;28;20448;-87
2022/04/01 07:03:09;;;;;;;0.40;0.40;;;3.30;99.90;;;;;;4991186;28;20645;-87
2022/04/01 07:05:35;;;;;;;0.50;0.50;;;3.30;99.90;;;;;;4986669;28;20462;-87
2022/04/01 07:08:03;;;;;;;0.50;0.50;;;3.40;99.90;;;;;;4988659;28;20988;-87
2022/04/01 07:10:32;;;;;;;0.40;0.40;;;3.40;99.90;;;;;;4999918;28;20447;-88
2022/04/01 07:12:58;;;;;;;0.50;0.50;;;3.40;99.90;;;;;;4989728;28;20528;-86
2022/04/01 07:18:46;;;;;;;0.50;0.50;;;3.60;99.90;;;;;;4983271;28;20506;-88
2022/04/01 07:21:12;;;;;;;0.40;0.40;;;3.60;99.90;;;;;;4991165;28;21133;-87
2022/04/01 07:23:41;;;;;;;0.50;0.50;;;3.70;99.90;;;;;;4989387;28;20691;-86
2022/04/01 07:26:07;;;;;;;0.50;0.50;;;3.70;99.90;;;;;;4988377;28;20819;-86
2022/04/01 07:28:32;;;;;;;0.50;0.50;;;3.80;99.90;;;;;;4986971;28;20442;-86
2022/04/01 07:30:58;;;;;;;0.40;0.40;;;3.90;99.90;;;;;;4988133;28;20705;-85
2022/04/01 07:33:24;;;;;;;0.40;0.40;;;4.00;99.90;;;;;;5007010;28;20227;-87
2022/04/01 07:35:50;;;;;;;0.50;0.50;;;4.10;99.90;;;;;;4987405;28;20189;-88
2022/04/01 07:38:16;;;;;;;0.40;0.40;;;4.10;99.90;;;;;;4993279;28;20242;-87
2022/04/01 07:41:11;;;;;;;0.47;0.47;;;4.10;99.90;;;;;;4987241;28;20189;-88
2022/04/01 07:43:36;;;;;;;0.33;0.33;;;4.10;99.90;;;;;;4988961;28;20452;-86
2022/04/01 07:46:03;;;;;;;0.50;0.50;;;4.20;99.90;;;;;;4980729;28;20976;-88
2022/04/01 07:48:29;;;;;;;0.40;0.40;;;4.30;99.90;;;;;;4990576;28;20448;-87
2022/04/01 07:50:54;;;;;;;0.50;0.50;;;4.30;99.90;;;;;;4986934;28;20958;-83
2022/04/01 07:53:20;;;;;;;0.50;0.50;;;4.30;99.90;;;;;;5006366;23;20514;-94
2022/04/01 07:55:48;;;;;;;0.40;0.40;;;4.30;99.90;;;;;;5000230;28;20720;-86
2022/04/01 07:58:14;;;;;;;0.50;0.50;;;4.50;99.90;;;;;;5007694;28;20188;-85
2022/04/01 08:00:41;;;;;;;0.47;0.47;;;4.50;99.90;;;;;;5008249;28;20553;-84
2022/04/01 08:03:08;;;;;;;0.40;0.40;;;4.40;99.90;;;;;;5005819;28;20486;-84
2022/04/01 08:05:33;;;;;;;0.50;0.50;;;4.30;99.90;;;;;;5015241;28;20442;-84
2022/04/01 08:07:59;;;;;;;0.40;0.40;;;4.30;99.90;;;;;;4998396;28;20489;-85
2022/04/01 08:10:24;;;;;;;0.43;0.43;;;4.40;99.90;;;;;;5008666;28;20194;-86
2022/04/01 08:12:50;;;;;;;0.40;0.40;;;4.60;99.90;;;;;;4991806;28;20228;-84
2022/04/01 08:15:15;;;;;;;0.40;0.40;;;4.50;99.90;;;;;;4991503;28;20640;-84
2022/04/01 08:17:41;;;;;;;0.40;0.40;;;4.50;99.90;;;;;;5006051;28;20191;-85
2022/04/01 08:20:07;;;;;;;0.40;0.40;;;4.40;99.90;;;;;;5008407;28;20191;-84
2022/04/01 08:22:33;;;;;;;0.50;0.50;;;4.40;99.90;;;;;;5008033;28;20254;-84
2022/04/01 08:24:58;;;;;;;0.40;0.40;;;4.50;99.90;;;;;;5011583;28;20415;-83
2022/04/01 08:27:24;;;;;;;0.40;0.40;;;4.60;99.90;;;;;;4989039;28;21092;-84
2022/04/01 08:29:59;;;;;;;0.40;0.40;;;4.70;99.90;;;;;;4986575;28;20286;-84
2022/04/01 08:32:29;;;;;;;0.50;0.50;;;4.50;99.90;;;;;;5009781;28;20219;-84
2022/04/01 08:34:55;;;;;;;0.50;0.50;;;4.60;99.90;;;;;;5010751;28;20439;-84
2022/04/01 08:37:20;;;;;;;0.40;0.40;;;4.50;99.90;;;;;;5008573;28;20443;-82
2022/04/01 08:39:47;;;;;;;0.30;0.30;;;4.70;99.90;;;;;;4990399;28;20188;-79
2022/04/01 08:42:13;;;;;;;0.40;0.40;;;4.90;99.90;;;;;;4992034;28;20611;-84
2022/04/01 08:44:41;;;;;;;0.30;0.30;;;5.10;99.90;;;;;;5009471;28;20474;-84
2022/04/01 08:47:08;;;;;;;0.50;0.50;;;5.30;99.90;;;;;;5006785;28;20447;-83
2022/04/01 08:49:34;;;;;;;0.40;0.40;;;5.20;99.90;;;;;;5007507;28;20863;-83
2022/04/01 08:52:00;;;;;;;0.40;0.40;;;5.20;99.90;;;;;;4991017;28;20479;-84
2022/04/01 08:54:26;;;;;;;0.43;0.43;;;5.30;99.90;;;;;;5007678;28;20970;-84
2022/04/01 08:56:51;;;;;;;0.40;0.40;;;5.30;99.90;;;;;;5007814;28;20196;-84
2022/04/01 08:59:17;;;;;;;0.33;0.33;;;5.40;99.90;;;;;;5007077;28;20203;-83
2022/04/01 09:01:44;;;;;;;1.93;1.37;;;5.30;99.90;;;;;;5007830;28;20253;-84
2022/04/01 09:04:22;;;;;;;1.20;1.10;;;5.30;99.90;;;;;;5006574;28;20184;-84
2022/04/01 09:06:50;;;;;;;0.80;0.70;;;5.50;99.90;;;;;;5006093;28;20447;-83
2022/04/01 09:09:24;;;;;;;0.93;0.80;;;5.80;99.90;;;;;;5009312;28;20526;-83
2022/04/01 09:12:06;;;;;;;0.60;0.60;;;5.80;99.10;;;;;;5008189;28;20502;-83
2022/04/01 09:14:35;;;;;;;1.20;0.97;;;5.80;99.80;;;;;;5013909;28;20902;-83
2022/04/01 09:17:01;;;;;;;1.30;0.93;;;5.70;99.70;;;;;;5000593;28;20448;-84
2022/04/01 09:19:31;;;;;;;0.63;0.60;;;5.90;99.90;;;;;;5007866;28;20470;-83
2022/04/01 09:21:57;;;;;;;0.30;0.30;;;5.70;99.20;;;;;;4995397;28;20471;-83
2022/04/01 09:24:23;;;;;;;0.40;0.40;;;5.70;99.30;;;;;;5016126;28;20454;-83
2022/04/01 09:26:55;;;;;;;0.30;0.30;;;5.50;98.80;;;;;;5004882;28;21191;-83
2022/04/01 09:29:20;;;;;;;0.40;0.40;;;5.60;99.30;;;;;;5011024;28;20806;-83
2022/04/01 09:31:54;;;;;;;0.40;0.40;;;5.60;98.70;;;;;;5008050;28;20475;-84
2022/04/01 09:34:20;;;;;;;0.40;0.40;;;5.60;99.80;;;;;;5012767;28;20268;-83
2022/04/01 09:36:45;;;;;;;0.30;0.30;;;5.70;98.50;;;;;;5009307;28;20538;-84
2022/04/01 09:39:18;;;;;;;0.30;0.30;;;6.00;99.90;;;;;;5009926;28;20223;-83
2022/04/01 09:41:46;;;;;;;0.40;0.40;;;6.20;98.90;;;;;;5009749;28;20203;-84
2022/04/01 09:44:15;;;;;;;0.30;0.30;;;6.40;98.80;;;;;;5006299;28;20436;-84
2022/04/01 09:46:46;;;;;;;0.30;0.30;;;6.40;98.00;;;;;;5006002;28;20458;-84
2022/04/01 09:49:31;;;;;;;0.30;0.30;;;6.40;96.10;;;;;;5000844;28;20451;-84
2022/04/01 09:51:57;;;;;;;0.30;0.30;;;6.40;96.80;;;;;;5004882;28;20483;-83
2022/04/01 09:54:24;;;;;;;0.30;0.30;;;6.10;95.60;;;;;;5011597;28;20498;-83
2022/04/01 09:56:54;;;;;;;0.30;0.30;;;6.10;95.50;;;;;;5006290;28;20463;-82
2022/04/01 09:59:22;;;;;;;0.30;0.30;;;6.30;95.20;;;;;;5008608;28;20458;-84
2022/04/01 10:01:47;;;;;;;0.30;0.30;;;6.50;96.70;;;;;;5002540;28;20447;-84
2022/04/01 10:04:13;;;;;;;0.30;0.30;;;6.70;95.90;;;;;;5010814;28;20454;-84
2022/04/01 10:06:40;;;;;;;0.40;0.40;;;6.50;95.00;;;;;;5007717;28;20196;-84
2022/04/01 10:09:09;;;;;;;0.30;0.30;;;6.70;95.00;;;;;;5011729;28;20188;-84
2022/04/01 10:11:37;;;;;;;0.30;0.30;;;6.80;94.60;;;;;;5005320;28;20472;-84
2022/04/01 10:14:12;;;;;;;0.40;0.40;;;6.70;94.70;;;;;;5009564;28;20455;-84
2022/04/01 10:16:42;;;;;;;0.30;0.30;;;6.50;94.60;;;;;;4991484;28;20465;-79
2022/04/01 10:19:32;;;;;;;0.30;0.30;;;6.40;93.30;;;;;;5004572;28;20493;-80
2022/04/01 10:21:58;;;;;;;0.30;0.30;;;6.70;95.50;;;;;;5004082;28;20481;-79
2022/04/01 10:24:52;;;;;;;0.30;0.30;;;7.00;94.50;;;;;;5013356;28;20454;-79
2022/04/01 10:27:41;;;;;;;0.30;0.30;;;7.10;94.40;;;;;;4997998;28;20718;-78
2022/04/01 10:30:09;;;;;;;0.30;0.30;;;7.30;94.50;;;;;;4986408;28;20452;-79
2022/04/01 10:32:35;;;;;;;0.30;0.30;;;7.30;93.90;;;;;;4995297;28;20502;-79
2022/04/01 10:35:05;;;;;;;0.30;0.30;;;7.50;94.10;;;;;;5005988;28;20529;-79
2022/04/01 10:37:32;;;;;;;0.30;0.30;;;7.50;92.70;;;;;;4994053;28;20593;-79
2022/04/01 10:40:04;;;;;;;0.30;0.30;;;7.50;93.40;;;;;;5002615;28;20447;-81
2022/04/01 10:42:39;;;;;;;0.30;0.30;;;8.00;93.50;;;;;;5001311;28;20582;-80
2022/04/01 10:45:20;;;;;;;0.30;0.30;;;7.90;93.00;;;;;;5008277;28;20512;-80
2022/04/01 10:53:48;;;;;;;0.30;0.30;;;7.80;93.70;;;;;;5006077;28;20486;-79
2022/04/01 10:56:26;;;;;;;0.30;0.30;;;8.10;93.50;;;;;;5009549;28;20444;-80
2022/04/01 10:59:15;;;;;;;0.30;0.30;;;7.90;92.40;;;;;;4992199;28;21012;-78
2022/04/01 11:01:41;;;;;;;0.20;0.20;;;7.50;93.00;;;;;;5006317;28;20452;-79
2022/04/01 11:04:12;;;;;;;0.30;0.30;;;8.00;93.60;;;;;;5015904;28;20526;-79
2022/04/01 11:07:00;;;;;;;0.30;0.30;;;8.00;93.20;;;;;;4991190;28;20195;-79
2022/04/01 11:09:34;;;;;;;0.20;0.20;;;7.80;92.80;;;;;;4982853;28;20443;-79
2022/04/01 11:12:15;;;;;;;0.20;0.20;;;7.60;92.50;;;;;;5000530;28;21076;-79
2022/04/01 11:15:19;;;;;;;0.30;0.30;;;7.30;92.80;;;;;;5009234;28;20447;-79
2022/04/01 11:17:47;;;;;;;0.30;0.30;;;7.70;93.10;;;;;;5005243;28;20966;-80
2022/04/01 11:20:18;;;;;;;0.20;0.20;;;8.10;92.20;;;;;;5008652;28;20443;-79
2022/04/01 11:22:46;;;;;;;0.30;0.30;;;7.80;93.00;;;;;;5000565;28;20852;-79
2022/04/01 11:25:33;;;;;;;0.30;0.30;;;8.50;94.80;;;;;;5005824;28;20447;-79
2022/04/01 11:27:59;;;;;;;0.20;0.20;;;8.80;93.00;;;;;;5012123;28;20973;-79
2022/04/01 11:30:26;;;;;;;0.30;0.30;;;9.00;92.40;;;;;;5016171;28;20443;-79
2022/04/01 11:32:57;;;;;;;0.20;0.20;;;8.60;91.60;;;;;;5002771;28;20231;-79
2022/04/01 11:35:26;;;;;;;0.20;0.20;;;8.60;92.10;;;;;;4997969;28;20442;-79
2022/04/01 11:37:52;;;;;;;0.30;0.30;;;7.70;91.50;;;;;;5002905;28;20786;-79
2022/04/01 11:40:25;;;;;;;0.20;0.20;;;7.30;92.70;;;;;;5007343;28;20810;-79
2022/04/01 11:43:09;;;;;;;0.30;0.30;;;7.10;92.40;;;;;;4995625;28;20447;-79
2022/04/01 11:45:36;;;;;;;0.20;0.20;;;7.20;92.30;;;;;;5008899;28;20851;-80
2022/04/01 11:48:12;;;;;;;0.30;0.30;;;7.60;93.50;;;;;;5012651;28;20451;-80
2022/04/01 11:50:44;;;;;;;0.30;0.30;;;7.30;92.90;;;;;;5005769;28;20434;-80
2022/04/01 11:53:18;;;;;;;0.30;0.30;;;7.30;94.20;;;;;;5003259;28;21039;-80
2022/04/01 11:55:44;;;;;;;0.20;0.20;;;7.00;93.70;;;;;;5003623;28;20498;-79
2022/04/01 11:58:10;;;;;;;0.30;0.30;;;6.90;93.30;;;;;;5001260;28;20447;-79
2022/04/01 12:00:36;;;;;;;0.30;0.30;;;7.20;94.40;;;;;;5006350;28;20449;-79
2022/04/01 12:03:01;;;;;;;0.30;0.30;;;7.10;94.00;;;;;;5020554;28;20189;-79
2022/04/01 12:05:30;;;;;;;0.30;0.30;;;6.90;93.10;;;;;;5010103;28;20179;-79
2022/04/01 12:10:50;;;;;;;0.33;0.33;;;6.50;94.10;;;;;;5007979;28;20945;-79
2022/04/01 12:13:15;;;;;;;0.30;0.30;;;6.60;94.60;;;;;;4994045;28;20544;-79
2022/04/01 12:15:42;;;;;;;0.40;0.40;;;6.40;93.90;;;;;;5009930;28;20423;-79
2022/04/01 12:18:16;;;;;;;0.30;0.30;;;6.20;94.70;;;;;;5009058;28;20667;-80
2022/04/01 12:20:51;;;;;;;0.40;0.40;;;6.00;94.80;;;;;;4991788;28;20454;-79
2022/04/01 12:23:19;;;;;;;0.40;0.40;;;6.10;94.60;;;;;;5014385;28;20443;-79
2022/04/01 12:25:47;;;;;;;0.40;0.40;;;5.90;95.40;;;;;;5009841;28;20546;-79
2022/04/01 12:28:16;;;;;;;0.40;0.40;;;5.70;95.00;;;;;;5012811;28;20447;-80
2022/04/01 12:30:50;;;;;;;0.30;0.30;;;5.90;95.70;;;;;;4990357;28;20486;-79
2022/04/01 12:33:15;;;;;;;0.30;0.30;;;6.00;95.00;;;;;;5002082;28;20497;-79
2022/04/01 12:35:54;;;;;;;0.40;0.40;;;5.70;95.20;;;;;;4987148;28;20531;-79
2022/04/01 12:38:20;;;;;;;0.40;0.40;;;5.70;95.40;;;;;;5011120;28;20606;-79
2022/04/01 12:40:45;;;;;;;0.40;0.40;;;5.70;95.70;;;;;;5012089;28;20446;-80
2022/04/01 12:43:33;;;;;;;0.40;0.40;;;5.60;94.80;;;;;;4996475;28;20193;-80
2022/04/01 12:46:17;;;;;;;0.37;0.37;;;5.50;95.30;;;;;;5005918;28;20184;-80
2022/04/01 12:48:47;;;;;;;0.30;0.30;;;5.60;95.80;;;;;;5006435;28;20440;-80
2022/04/01 12:51:20;;;;;;;0.33;0.33;;;5.70;96.70;;;;;;5006451;28;21365;-80
2022/04/01 12:54:13;;;;;;;0.40;0.40;;;5.80;96.30;;;;;;5011872;28;20482;-80
2022/04/01 12:56:39;;;;;;;0.40;0.40;;;5.90;94.70;;;;;;5004340;28;20455;-80
2022/04/01 12:59:12;;;;;;;0.30;0.30;;;6.00;95.30;;;;;;4989872;28;20453;-80
2022/04/01 13:01:40;;;;;;;0.40;0.40;;;6.00;94.50;;;;;;5009293;28;20809;-80
2022/04/01 13:04:08;;;;;;;0.40;0.40;;;6.00;95.20;;;;;;4988378;28;20552;-79
2022/04/01 13:06:33;;;;;;;0.30;0.30;;;6.10;94.60;;;;;;4987212;28;20470;-80
2022/04/01 13:09:07;;;;;;;0.30;0.30;;;6.10;94.50;;;;;;5011643;28;21242;-80
2022/04/01 13:11:44;;;;;;;0.30;0.30;;;6.20;94.50;;;;;;4986806;28;20212;-80
2022/04/01 13:14:24;;;;;;;0.30;0.30;;;6.40;95.10;;;;;;4992436;28;20875;-80
2022/04/01 13:16:58;;;;;;;0.30;0.30;;;6.50;95.70;;;;;;4989733;28;20454;-79
2022/04/01 13:19:32;;;;;;;0.30;0.30;;;6.20;93.50;;;;;;5007610;28;20471;-80
2022/04/01 13:22:00;;;;;;;0.40;0.40;;;6.40;95.10;;;;;;5006867;28;20440;-79
2022/04/01 13:24:34;;;;;;;0.30;0.30;;;6.30;94.10;;;;;;5015904;28;20447;-80
2022/04/01 13:27:00;;;;;;;0.30;0.30;;;6.40;94.50;;;;;;5006858;28;20439;-80
2022/04/01 13:29:26;;;;;;;0.33;0.33;;;6.50;95.30;;;;;;5000749;28;20494;-79